Time;durP1;ratioP1;P1;durP2;ratioP2;P2;SDS_P1;SDS_P2;PMS_P1;PMS_P2;Temp;Humidity;BMP_temperature;BMP_pressure;BME280_temperature;BME280_humidity;BME280_pressure;Samples;Min_cycle;Max_cycle;Signal;HPM_P1;HPM_P2
2023/04/18 00:00:09;;;;;;;;;;;;;;;;;;5074001;28;19928;-70
2023/04/18 00:02:37;;;;;;;;;;;;;;;;;;5075274;28;19931;-70
2023/04/18 00:05:04;;;;;;;;;;;;;;;;;;5071992;28;19924;-70
2023/04/18 00:07:31;;;;;;;;;;;;;;;;;;5070203;28;19925;-70
2023/04/18 00:09:58;;;;;;;;;;;;;;;;;;5070642;28;19924;-71
2023/04/18 00:12:25;;;;;;;;;;;;;;;;;;5075358;28;19931;-70
2023/04/18 00:14:52;;;;;;;;;;;;;;;;;;5073441;28;19924;-71
2023/04/18 00:17:19;;;;;;;;;;;;;;;;;;5071511;28;19933;-70
2023/04/18 00:19:46;;;;;;;;;;;;;;;;;;5070278;28;19928;-70
2023/04/18 00:22:15;;;;;;;;;;;;;;;;;;5074265;28;19924;-71
2023/04/18 00:24:42;;;;;;;;;;;;;;;;;;5073694;28;20279;-71
2023/04/18 00:27:09;;;;;;;;;;;;;;;;;;5072989;28;20402;-71
2023/04/18 00:29:36;;;;;;;;;;;;;;;;;;5062901;28;20372;-71
2023/04/18 00:32:03;;;;;;;;;;;;;;;;;;5073985;28;19925;-71
2023/04/18 00:34:30;;;;;;;;;;;;;;;;;;5073454;28;19931;-70
2023/04/18 00:36:57;;;;;;;;;;;;;;;;;;5066660;28;20412;-70
2023/04/18 00:39:24;;;;;;;;;;;;;;;;;;5074483;28;19964;-70
2023/04/18 00:41:50;;;;;;;;;;;;;;;;;;5073384;28;19925;-70
2023/04/18 00:44:17;;;;;;;;;;;;;;;;;;5064184;28;19925;-70
2023/04/18 00:46:44;;;;;;;;;;;;;;;;;;5064483;28;20011;-71
2023/04/18 00:49:11;;;;;;;;;;;;;;;;;;5071425;28;19924;-70
2023/04/18 00:51:38;;;;;;;;;;;;;;;;;;5071811;28;19936;-70
2023/04/18 00:54:05;;;;;;;;;;;;;;;;;;5071386;28;19924;-70
2023/04/18 00:56:32;;;;;;;;;;;;;;;;;;5072901;28;19925;-71
2023/04/18 00:59:00;;;;;;;;;;;;;;;;;;5071408;28;19972;-70
2023/04/18 01:01:27;;;;;;;;;;;;;;;;;;5072149;28;19925;-71
2023/04/18 01:03:54;;;;;;;;;;;;;;;;;;5072152;28;19924;-70
2023/04/18 01:06:22;;;;;;;;;;;;;;;;;;5073129;28;19924;-69
2023/04/18 01:08:49;;;;;;;;;;;;;;;;;;5070457;28;19925;-69
2023/04/18 01:11:16;;;;;;;;;;;;;;;;;;5066231;28;19947;-69
2023/04/18 01:13:43;;;;;;;;;;;;;;;;;;5060379;28;20003;-69
2023/04/18 01:16:10;;;;;;;;;;;;;;;;;;5066146;28;20299;-69
2023/04/18 01:18:39;;;;;;;;;;;;;;;;;;5065339;28;20295;-69
2023/04/18 01:21:05;;;;;;;;;;;;;;;;;;5070185;28;19924;-70
2023/04/18 01:23:32;;;;;;;;;;;;;;;;;;5064316;28;20008;-69
2023/04/18 01:25:59;;;;;;;;;;;;;;;;;;5072144;28;20311;-71
2023/04/18 01:28:27;;;;;;;;;;;;;;;;;;5067811;28;20294;-70
2023/04/18 01:30:54;;;;;;;;;;;;;;;;;;5072100;28;20332;-69
2023/04/18 01:33:21;;;;;;;;;;;;;;;;;;5072931;28;19924;-70
2023/04/18 01:35:48;;;;;;;;;;;;;;;;;;5064831;28;20436;-69
2023/04/18 01:38:15;;;;;;;;;;;;;;;;;;5070834;28;20028;-69
2023/04/18 01:40:42;;;;;;;;;;;;;;;;;;5066512;28;20027;-69
2023/04/18 01:43:09;;;;;;;;;;;;;;;;;;5067674;28;19932;-70
2023/04/18 01:45:36;;;;;;;;;;;;;;;;;;5061967;28;19952;-69
2023/04/18 01:48:03;;;;;;;;;;;;;;;;;;5059702;28;19925;-70
2023/04/18 01:50:30;;;;;;;;;;;;;;;;;;5071876;28;19924;-69
2023/04/18 01:52:57;;;;;;;;;;;;;;;;;;5059645;28;20023;-70
2023/04/18 01:55:24;;;;;;;;;;;;;;;;;;5061640;28;19924;-69
2023/04/18 01:57:51;;;;;;;;;;;;;;;;;;5070702;28;20026;-71
2023/04/18 02:00:18;;;;;;;;;;;;;;;;;;5070935;28;19928;-71
2023/04/18 02:02:45;;;;;;;;;;;;;;;;;;5071561;28;20027;-71
2023/04/18 02:05:12;;;;;;;;;;;;;;;;;;5065100;28;19928;-71
2023/04/18 02:07:41;;;;;;;;;;;;;;;;;;5069531;28;19924;-69
2023/04/18 02:10:08;;;;;;;;;;;;;;;;;;5070329;28;19955;-69
2023/04/18 02:12:35;;;;;;;;;;;;;;;;;;5071822;28;19924;-70
2023/04/18 02:15:02;;;;;;;;;;;;;;;;;;5072400;28;19967;-70
2023/04/18 02:17:29;;;;;;;;;;;;;;;;;;5071901;28;19924;-70
2023/04/18 02:19:56;;;;;;;;;;;;;;;;;;5056666;28;19964;-69
2023/04/18 02:22:23;;;;;;;;;;;;;;;;;;5052240;28;19925;-70
2023/04/18 02:24:50;;;;;;;;;;;;;;;;;;5065781;28;19932;-70
2023/04/18 02:27:17;;;;;;;;;;;;;;;;;;5071094;28;20023;-69
2023/04/18 02:29:44;;;;;;;;;;;;;;;;;;5069950;28;20023;-69
2023/04/18 02:32:11;;;;;;;;;;;;;;;;;;5071706;28;19924;-69
2023/04/18 02:34:38;;;;;;;;;;;;;;;;;;5070041;28;20327;-69
2023/04/18 02:37:05;;;;;;;;;;;;;;;;;;5071284;28;19964;-69
2023/04/18 02:39:32;;;;;;;;;;;;;;;;;;5072062;28;19967;-70
2023/04/18 02:42:00;;;;;;;;;;;;;;;;;;5067024;28;19935;-68
2023/04/18 02:44:27;;;;;;;;;;;;;;;;;;5072535;28;19928;-68
2023/04/18 02:46:54;;;;;;;;;;;;;;;;;;5070016;28;19924;-68
2023/04/18 02:49:21;;;;;;;;;;;;;;;;;;5070844;28;19931;-69
2023/04/18 02:51:48;;;;;;;;;;;;;;;;;;5071760;28;20011;-70
2023/04/18 02:54:15;;;;;;;;;;;;;;;;;;5072587;28;19925;-68
2023/04/18 02:56:42;;;;;;;;;;;;;;;;;;5069303;28;20023;-69
2023/04/18 02:59:09;;;;;;;;;;;;;;;;;;5066096;28;21136;-69
2023/04/18 03:01:36;;;;;;;;;;;;;;;;;;5071461;28;19930;-69
2023/04/18 03:04:03;;;;;;;;;;;;;;;;;;5071974;28;19932;-69
2023/04/18 03:06:31;;;;;;;;;;;;;;;;;;5071090;28;20014;-69
2023/04/18 03:08:58;;;;;;;;;;;;;;;;;;5069784;28;20297;-70
2023/04/18 03:11:25;;;;;;;;;;;;;;;;;;5068259;28;20007;-69
2023/04/18 03:13:52;;;;;;;;;;;;;;;;;;5069233;28;19996;-69
2023/04/18 03:16:19;;;;;;;;;;;;;;;;;;5070561;28;20411;-69
2023/04/18 03:18:46;;;;;;;;;;;;;;;;;;5068781;28;20300;-70
2023/04/18 03:21:13;;;;;;;;;;;;;;;;;;5072261;28;20012;-69
2023/04/18 03:23:40;;;;;;;;;;;;;;;;;;5075240;28;19933;-69
2023/04/18 03:26:07;;;;;;;;;;;;;;;;;;5075178;28;20392;-69
2023/04/18 03:28:34;;;;;;;;;;;;;;;;;;5072279;28;22222;-69
2023/04/18 03:31:01;;;;;;;;;;;;;;;;;;5073848;28;20430;-69
2023/04/18 03:33:28;;;;;;;;;;;;;;;;;;5075285;28;19924;-69
2023/04/18 03:35:55;;;;;;;;;;;;;;;;;;5074504;28;19928;-69
2023/04/18 03:38:22;;;;;;;;;;;;;;;;;;5075040;28;19924;-68
2023/04/18 03:40:49;;;;;;;;;;;;;;;;;;5066960;28;19925;-69
2023/04/18 03:43:16;;;;;;;;;;;;;;;;;;5071006;28;19930;-69
2023/04/18 03:45:46;;;;;;;;;;;;;;;;;;5073525;28;19929;-71
2023/04/18 03:48:12;;;;;;;;;;;;;;;;;;5073757;28;19964;-69
2023/04/18 03:50:40;;;;;;;;;;;;;;;;;;5075041;28;20023;-69
2023/04/18 03:53:07;;;;;;;;;;;;;;;;;;5074710;28;20011;-69
2023/04/18 03:55:34;;;;;;;;;;;;;;;;;;5075431;28;20011;-69
2023/04/18 03:58:00;;;;;;;;;;;;;;;;;;5068537;28;19924;-69
2023/04/18 04:00:28;;;;;;;;;;;;;;;;;;5071004;28;19931;-71
2023/04/18 04:02:55;;;;;;;;;;;;;;;;;;5073452;28;19925;-69
2023/04/18 04:05:22;;;;;;;;;;;;;;;;;;5072489;28;19971;-69
2023/04/18 04:07:48;;;;;;;;;;;;;;;;;;5070410;28;19928;-70
2023/04/18 04:10:15;;;;;;;;;;;;;;;;;;5068240;28;19925;-69
2023/04/18 04:12:42;;;;;;;;;;;;;;;;;;5071226;28;19932;-70
2023/04/18 04:15:09;;;;;;;;;;;;;;;;;;5072880;28;19930;-70
2023/04/18 04:17:36;;;;;;;;;;;;;;;;;;5071860;28;19924;-69
2023/04/18 04:20:04;;;;;;;;;;;;;;;;;;5073709;28;20058;-68
2023/04/18 04:22:31;;;;;;;;;;;;;;;;;;5074041;28;20015;-70
2023/04/18 04:24:59;;;;;;;;;;;;;;;;;;5062029;28;20264;-69
2023/04/18 04:27:26;;;;;;;;;;;;;;;;;;5062612;28;19929;-70
2023/04/18 04:29:55;;;;;;;;;;;;;;;;;;5069881;28;20382;-71
2023/04/18 04:32:22;;;;;;;;;;;;;;;;;;5072599;28;19924;-71
2023/04/18 04:34:49;;;;;;;;;;;;;;;;;;5079792;28;20092;-70
2023/04/18 04:37:17;;;;;;;;;;;;;;;;;;5074066;28;19960;-70
2023/04/18 04:39:45;;;;;;;;;;;;;;;;;;5063742;28;20335;-70
2023/04/18 04:42:12;;;;;;;;;;;;;;;;;;5066458;28;19924;-71
2023/04/18 04:44:40;;;;;;;;;;;;;;;;;;5068398;28;19925;-71
2023/04/18 04:47:07;;;;;;;;;;;;;;;;;;5073521;28;19932;-70
2023/04/18 04:49:34;;;;;;;;;;;;;;;;;;5072329;28;20380;-70
2023/04/18 04:52:02;;;;;;;;;;;;;;;;;;5070588;28;19931;-70
2023/04/18 04:54:29;;;;;;;;;;;;;;;;;;5074892;28;19924;-71
2023/04/18 04:56:56;;;;;;;;;;;;;;;;;;5055841;28;19924;-71
2023/04/18 04:59:23;;;;;;;;;;;;;;;;;;5066491;28;19947;-70
2023/04/18 05:01:50;;;;;;;;;;;;;;;;;;5069778;28;19924;-71
2023/04/18 05:04:17;;;;;;;;;;;;;;;;;;5062522;28;19924;-70
2023/04/18 05:06:44;;;;;;;;;;;;;;;;;;5069252;28;19928;-71
2023/04/18 05:09:11;;;;;;;;;;;;;;;;;;5072893;28;20020;-70
2023/04/18 05:11:38;;;;;;;;;;;;;;;;;;5072913;28;19968;-70
2023/04/18 05:14:05;;;;;;;;;;;;;;;;;;5072892;28;19924;-70
2023/04/18 05:16:32;;;;;;;;;;;;;;;;;;5059634;28;20032;-70
2023/04/18 05:18:59;;;;;;;;;;;;;;;;;;5067123;28;19925;-71
2023/04/18 05:21:27;;;;;;;;;;;;;;;;;;5072260;28;19924;-71
2023/04/18 05:23:54;;;;;;;;;;;;;;;;;;5072965;28;19959;-71
2023/04/18 05:26:21;;;;;;;;;;;;;;;;;;5065153;28;19924;-70
2023/04/18 05:28:48;;;;;;;;;;;;;;;;;;5072947;28;19994;-71
2023/04/18 05:31:15;;;;;;;;;;;;;;;;;;5067174;28;19924;-70
2023/04/18 05:33:42;;;;;;;;;;;;;;;;;;5064919;28;20011;-71
2023/04/18 05:36:09;;;;;;;;;;;;;;;;;;5072154;28;20444;-68
2023/04/18 05:38:36;;;;;;;;;;;;;;;;;;5072210;28;19955;-69
2023/04/18 05:41:03;;;;;;;;;;;;;;;;;;5071318;28;20010;-69
2023/04/18 05:43:30;;;;;;;;;;;;;;;;;;5070833;28;19970;-71
2023/04/18 05:45:57;;;;;;;;;;;;;;;;;;5072589;28;19925;-70
2023/04/18 05:48:24;;;;;;;;;;;;;;;;;;5070731;28;19924;-71
2023/04/18 05:50:51;;;;;;;;;;;;;;;;;;5071966;28;20019;-71
2023/04/18 05:53:18;;;;;;;;;;;;;;;;;;5070768;28;19934;-70
2023/04/18 05:55:47;;;;;;;;;;;;;;;;;;5072828;28;19924;-71
2023/04/18 05:58:14;;;;;;;;;;;;;;;;;;5072494;28;20019;-71
2023/04/18 06:00:41;;;;;;;;;;;;;;;;;;5071379;28;19924;-71
2023/04/18 06:03:08;;;;;;;;;;;;;;;;;;5070915;28;20323;-72
2023/04/18 06:05:35;;;;;;;;;;;;;;;;;;5072441;28;19946;-70
2023/04/18 06:08:02;;;;;;;;;;;;;;;;;;5070881;28;19925;-71
2023/04/18 06:10:29;;;;;;;;;;;;;;;;;;5070073;28;20358;-70
2023/04/18 06:12:56;;;;;;;;;;;;;;;;;;5071186;28;19970;-72
2023/04/18 06:15:23;;;;;;;;;;;;;;;;;;5071125;28;19924;-71
2023/04/18 06:17:50;;;;;;;;;;;;;;;;;;5061231;28;19946;-74
2023/04/18 06:20:17;;;;;;;;;;;;;;;;;;5068494;28;19924;-73
2023/04/18 06:22:44;;;;;;;;;;;;;;;;;;5052403;28;20023;-73
2023/04/18 06:25:11;;;;;;;;;;;;;;;;;;5066561;28;19924;-74
2023/04/18 06:27:38;;;;;;;;;;;;;;;;;;5064858;28;19924;-74
2023/04/18 06:30:05;;;;;;;;;;;;;;;;;;5059107;28;20007;-71
2023/04/18 06:32:32;;;;;;;;;;;;;;;;;;5062986;28;19924;-72
2023/04/18 06:34:59;;;;;;;;;;;;;;;;;;5062976;28;20027;-71
2023/04/18 06:37:26;;;;;;;;;;;;;;;;;;5070406;28;20015;-71
2023/04/18 06:39:53;;;;;;;;;;;;;;;;;;5063479;28;20456;-71
2023/04/18 06:42:20;;;;;;;;;;;;;;;;;;5067535;28;20382;-72
2023/04/18 06:44:47;;;;;;;;;;;;;;;;;;5065033;28;20525;-71
2023/04/18 06:47:14;;;;;;;;;;;;;;;;;;5062657;28;20392;-71
2023/04/18 06:49:41;;;;;;;;;;;;;;;;;;5067350;28;19925;-71
2023/04/18 06:52:08;;;;;;;;;;;;;;;;;;5068877;28;19924;-70
2023/04/18 06:54:35;;;;;;;;;;;;;;;;;;5069169;28;19925;-69
2023/04/18 06:57:02;;;;;;;;;;;;;;;;;;5067271;28;19947;-69
2023/04/18 06:59:29;;;;;;;;;;;;;;;;;;5076363;28;19947;-70
2023/04/18 07:01:56;;;;;;;;;;;;;;;;;;5067348;28;19963;-70
2023/04/18 07:04:23;;;;;;;;;;;;;;;;;;5068067;28;19924;-69
2023/04/18 07:06:50;;;;;;;;;;;;;;;;;;5065957;28;20403;-71
2023/04/18 07:09:17;;;;;;;;;;;;;;;;;;5070232;28;20344;-71
2023/04/18 07:11:44;;;;;;;;;;;;;;;;;;5070331;28;19930;-72
2023/04/18 07:14:11;;;;;;;;;;;;;;;;;;5070403;28;19925;-67
2023/04/18 07:16:38;;;;;;;;;;;;;;;;;;5069945;28;19924;-67
2023/04/18 07:19:05;;;;;;;;;;;;;;;;;;5063612;28;19924;-67
2023/04/18 07:21:32;;;;;;;;;;;;;;;;;;5068092;28;19929;-68
2023/04/18 07:23:59;;;;;;;;;;;;;;;;;;5067659;28;20397;-67
2023/04/18 07:26:26;;;;;;;;;;;;;;;;;;5062991;28;19924;-67
2023/04/18 07:28:53;;;;;;;;;;;;;;;;;;5067733;28;19932;-67
2023/04/18 07:31:20;;;;;;;;;;;;;;;;;;5063056;28;19932;-67
2023/04/18 07:33:47;;;;;;;;;;;;;;;;;;5069244;28;19928;-67
2023/04/18 07:36:14;;;;;;;;;;;;;;;;;;5064085;28;20012;-67
2023/04/18 07:38:43;;;;;;;;;;;;;;;;;;5065040;28;20057;-68
2023/04/18 07:41:10;;;;;;;;;;;;;;;;;;5063072;28;19924;-71
2023/04/18 07:43:37;;;;;;;;;;;;;;;;;;5069009;28;19925;-72
2023/04/18 07:46:04;;;;;;;;;;;;;;;;;;5070764;28;19931;-71
2023/04/18 07:48:31;;;;;;;;;;;;;;;;;;5067677;28;19929;-73
2023/04/18 07:50:58;;;;;;;;;;;;;;;;;;5069854;28;19925;-72
2023/04/18 07:53:25;;;;;;;;;;;;;;;;;;5061309;28;20336;-71
2023/04/18 07:55:53;;;;;;;;;;;;;;;;;;5065022;28;20007;-71
2023/04/18 07:58:20;;;;;;;;;;;;;;;;;;5065508;28;19925;-71
2023/04/18 08:00:47;;;;;;;;;;;;;;;;;;5058463;22;19925;-71
2023/04/18 08:03:14;;;;;;;;;;;;;;;;;;5053698;28;19925;-72
2023/04/18 08:05:41;;;;;;;;;;;;;;;;;;5047675;28;19940;-71
2023/04/18 08:08:08;;;;;;;;;;;;;;;;;;5045001;28;20011;-71
2023/04/18 08:10:35;;;;;;;;;;;;;;;;;;5045973;28;19925;-71
2023/04/18 08:13:02;;;;;;;;;;;;;;;;;;5045500;28;20297;-71
2023/04/18 08:15:31;;;;;;;;;;;;;;;;;;5075213;22;21762;-72
2023/04/18 08:17:58;;;;;;;;;;;;;;;;;;5090839;28;19924;-72
2023/04/18 08:20:25;;;;;;;;;;;;;;;;;;5088386;28;20015;-71
2023/04/18 08:22:52;;;;;;;;;;;;;;;;;;5094535;28;20383;-72
2023/04/18 08:25:19;;;;;;;;;;;;;;;;;;5094934;28;19928;-70
2023/04/18 08:27:46;;;;;;;;;;;;;;;;;;5094531;28;19924;-71
2023/04/18 08:30:13;;;;;;;;;;;;;;;;;;5102683;28;19977;-71
2023/04/18 08:32:40;;;;;;;;;;;;;;;;;;5106330;28;20018;-71
2023/04/18 08:35:07;;;;;;;;;;;;;;;;;;5102723;28;19924;-71
2023/04/18 08:37:35;;;;;;;;;;;;;;;;;;5088394;28;19928;-70
2023/04/18 08:40:04;;;;;;;;;;;;;;;;;;5091159;28;19924;-72
2023/04/18 08:42:31;;;;;;;;;;;;;;;;;;5104021;28;19924;-72
2023/04/18 08:44:58;;;;;;;;;;;;;;;;;;5100072;28;19930;-72
2023/04/18 08:47:25;;;;;;;;;;;;;;;;;;5089807;28;20268;-73
2023/04/18 08:49:52;;;;;;;;;;;;;;;;;;5091850;28;19940;-73
2023/04/18 08:52:20;;;;;;;;;;;;;;;;;;5089870;28;19932;-71
2023/04/18 08:54:47;;;;;;;;;;;;;;;;;;5088139;28;20299;-71
2023/04/18 08:57:15;;;;;;;;;;;;;;;;;;5089510;28;19925;-71
2023/04/18 08:59:44;;;;;;;;;;;;;;;;;;5088393;28;19928;-71
2023/04/18 09:02:11;;;;;;;;;;;;;;;;;;5089494;28;19931;-71
2023/04/18 09:04:38;;;;;;;;;;;;;;;;;;5091106;28;19924;-71
2023/04/18 09:07:06;;;;;;;;;;;;;;;;;;5098111;28;20011;-72
2023/04/18 09:09:33;;;;;;;;;;;;;;;;;;5105284;28;19943;-71
2023/04/18 09:12:00;;;;;;;;;;;;;;;;;;5086560;28;19931;-71
2023/04/18 09:14:27;;;;;;;;;;;;;;;;;;5086326;28;20011;-72
2023/04/18 09:16:55;;;;;;;;;;;;;;;;;;5081330;28;19954;-70
2023/04/18 09:19:22;;;;;;;;;;;;;;;;;;5083244;28;19969;-71
2023/04/18 09:21:50;;;;;;;;;;;;;;;;;;5096860;28;19924;-70
2023/04/18 09:24:19;;;;;;;;;;;;;;;;;;5085334;28;19924;-70
2023/04/18 09:26:46;;;;;;;;;;;;;;;;;;5081076;28;19924;-70
2023/04/18 09:29:13;;;;;;;;;;;;;;;;;;5076310;28;19928;-70
2023/04/18 09:31:40;;;;;;;;;;;;;;;;;;5090519;28;19924;-70
2023/04/18 09:34:09;;;;;;;;;;;;;;;;;;5090888;28;19964;-71
2023/04/18 09:36:36;;;;;;;;;;;;;;;;;;5087167;28;20307;-72
2023/04/18 09:39:04;;;;;;;;;;;;;;;;;;5093082;28;20014;-71
2023/04/18 09:41:31;;;;;;;;;;;;;;;;;;5104922;28;19924;-71
2023/04/18 09:43:58;;;;;;;;;;;;;;;;;;5111375;28;19931;-71
2023/04/18 09:46:26;;;;;;;;;;;;;;;;;;5091829;28;19928;-71
2023/04/18 09:48:53;;;;;;;;;;;;;;;;;;5088488;28;19977;-71
2023/04/18 09:51:20;;;;;;;;;;;;;;;;;;5082552;28;20023;-71
2023/04/18 09:53:49;;;;;;;;;;;;;;;;;;5105082;28;19928;-71
2023/04/18 09:56:16;;;;;;;;;;;;;;;;;;5099656;28;19924;-71
2023/04/18 09:58:42;;;;;;;;;;;;;;;;;;5090980;28;20022;-71
2023/04/18 10:01:12;;;;;;;;;;;;;;;;;;5089096;28;19935;-71
2023/04/18 10:03:39;;;;;;;;;;;;;;;;;;5093181;28;19939;-70
2023/04/18 10:06:06;;;;;;;;;;;;;;;;;;5089927;28;19964;-72
2023/04/18 10:08:33;;;;;;;;;;;;;;;;;;5081444;28;19932;-72
2023/04/18 10:11:00;;;;;;;;;;;;;;;;;;5088923;28;19932;-71
2023/04/18 10:13:27;;;;;;;;;;;;;;;;;;5089473;28;20023;-71
2023/04/18 10:15:54;;;;;;;;;;;;;;;;;;5089699;28;19924;-71
2023/04/18 10:20:57;;;;;;;;;;;;;;;;;;5095633;22;19943;-71
2023/04/18 10:23:24;;;;;;;;;;;;;;;;;;5088515;28;20440;-71
2023/04/18 10:25:51;;;;;;;;;;;;;;;;;;5081792;28;20311;-71
2023/04/18 10:28:19;;;;;;;;;;;;;;;;;;5088525;28;20388;-71
2023/04/18 10:30:46;;;;;;;;;;;;;;;;;;5090954;28;19962;-71
2023/04/18 10:33:13;;;;;;;;;;;;;;;;;;5092014;28;19967;-70
2023/04/18 10:35:40;;;;;;;;;;;;;;;;;;5086785;28;19938;-71
2023/04/18 10:38:07;;;;;;;;;;;;;;;;;;5089595;28;20007;-70
2023/04/18 10:40:34;;;;;;;;;;;;;;;;;;5091100;28;19924;-71
2023/04/18 10:43:01;;;;;;;;;;;;;;;;;;5095818;28;19925;-70
2023/04/18 10:45:30;;;;;;;;;;;;;;;;;;5085268;28;19946;-70
2023/04/18 10:47:57;;;;;;;;;;;;;;;;;;5093163;28;20070;-71
2023/04/18 10:50:23;;;;;;;;;;;;;;;;;;5095798;28;19924;-70
2023/04/18 10:52:50;;;;;;;;;;;;;;;;;;5090855;28;19932;-70
2023/04/18 10:55:18;;;;;;;;;;;;;;;;;;5075805;28;19924;-71
2023/04/18 10:57:45;;;;;;;;;;;;;;;;;;5093947;28;19924;-71
2023/04/18 11:00:12;;;;;;;;;;;;;;;;;;5099604;28;19964;-71
2023/04/18 11:02:40;;;;;;;;;;;;;;;;;;5087834;28;19928;-71
2023/04/18 11:05:07;;;;;;;;;;;;;;;;;;5085864;28;20404;-71
2023/04/18 11:07:34;;;;;;;;;;;;;;;;;;5089509;28;20399;-70
2023/04/18 11:10:01;;;;;;;;;;;;;;;;;;5094535;28;19928;-72
2023/04/18 11:12:28;;;;;;;;;;;;;;;;;;5100625;28;19924;-71
2023/04/18 11:14:54;;;;;;;;;;;;;;;;;;5092006;28;19924;-72
2023/04/18 11:17:22;;;;;;;;;;;;;;;;;;5085589;28;19931;-72
2023/04/18 11:19:50;;;;;;;;;;;;;;;;;;5092855;28;20015;-72
2023/04/18 11:22:17;;;;;;;;;;;;;;;;;;5075536;28;19925;-72
2023/04/18 11:24:44;;;;;;;;;;;;;;;;;;5080968;28;20039;-74
2023/04/18 11:27:10;;;;;;;;;;;;;;;;;;5085380;28;20031;-73
2023/04/18 11:29:38;;;;;;;;;;;;;;;;;;5090040;28;19934;-73
2023/04/18 11:32:05;;;;;;;;;;;;;;;;;;5084482;28;20013;-73
2023/04/18 11:34:32;;;;;;;;;;;;;;;;;;5076199;28;20027;-73
2023/04/18 11:36:59;;;;;;;;;;;;;;;;;;5084678;28;19924;-73
2023/04/18 11:39:26;;;;;;;;;;;;;;;;;;5083599;28;19924;-73
2023/04/18 11:41:55;;;;;;;;;;;;;;;;;;5090461;28;19973;-73
2023/04/18 11:44:22;;;;;;;;;;;;;;;;;;5096506;28;20299;-73
2023/04/18 11:46:50;;;;;;;;;;;;;;;;;;5083553;28;20410;-74
2023/04/18 11:49:17;;;;;;;;;;;;;;;;;;5105417;28;19924;-74
2023/04/18 11:51:45;;;;;;;;;;;;;;;;;;5098483;28;19983;-73
2023/04/18 11:54:12;;;;;;;;;;;;;;;;;;5100271;28;20307;-74
2023/04/18 11:56:39;;;;;;;;;;;;;;;;;;5093677;28;20406;-73
2023/04/18 11:59:06;;;;;;;;;;;;;;;;;;5085384;28;19936;-73
2023/04/18 12:01:33;;;;;;;;;;;;;;;;;;5093719;28;20014;-73
2023/04/18 12:04:00;;;;;;;;;;;;;;;;;;5084656;28;20048;-73
2023/04/18 12:06:27;;;;;;;;;;;;;;;;;;5083181;28;19929;-73
2023/04/18 12:08:54;;;;;;;;;;;;;;;;;;5097415;28;19955;-72
2023/04/18 12:11:21;;;;;;;;;;;;;;;;;;5095034;28;20311;-72
2023/04/18 12:13:48;;;;;;;;;;;;;;;;;;5090517;28;19924;-73
2023/04/18 12:16:15;;;;;;;;;;;;;;;;;;5092627;28;20015;-73
2023/04/18 12:18:42;;;;;;;;;;;;;;;;;;5089339;28;19966;-73
2023/04/18 12:21:09;;;;;;;;;;;;;;;;;;5086467;28;19924;-73
2023/04/18 12:23:37;;;;;;;;;;;;;;;;;;5097861;28;19924;-73
2023/04/18 12:26:04;;;;;;;;;;;;;;;;;;5093163;28;19951;-73
2023/04/18 12:28:31;;;;;;;;;;;;;;;;;;5093428;28;19967;-72
2023/04/18 12:30:58;;;;;;;;;;;;;;;;;;5093796;28;20031;-73
2023/04/18 12:33:25;;;;;;;;;;;;;;;;;;5095454;28;20280;-73
2023/04/18 12:35:52;;;;;;;;;;;;;;;;;;5104028;28;20398;-75
2023/04/18 12:38:19;;;;;;;;;;;;;;;;;;5092861;28;19924;-73
2023/04/18 12:40:46;;;;;;;;;;;;;;;;;;5094669;28;19931;-69
2023/04/18 12:43:13;;;;;;;;;;;;;;;;;;5089148;28;20015;-69
2023/04/18 12:45:40;;;;;;;;;;;;;;;;;;5093155;28;19925;-69
2023/04/18 12:48:07;;;;;;;;;;;;;;;;;;5095862;28;19924;-69
2023/04/18 12:50:34;;;;;;;;;;;;;;;;;;5094744;28;19927;-70
2023/04/18 12:53:01;;;;;;;;;;;;;;;;;;5092964;28;19924;-69
2023/04/18 12:55:28;;;;;;;;;;;;;;;;;;5091575;28;19987;-69
2023/04/18 12:57:55;;;;;;;;;;;;;;;;;;5093424;28;19966;-73
2023/04/18 13:00:22;;;;;;;;;;;;;;;;;;5091121;28;20372;-73
2023/04/18 13:02:49;;;;;;;;;;;;;;;;;;5100619;28;20358;-72
2023/04/18 13:05:16;;;;;;;;;;;;;;;;;;5101883;28;20337;-72
2023/04/18 13:07:43;;;;;;;;;;;;;;;;;;5100731;28;19927;-74
2023/04/18 13:10:10;;;;;;;;;;;;;;;;;;5102881;28;19932;-73
2023/04/18 13:12:37;;;;;;;;;;;;;;;;;;5100704;28;20281;-72
2023/04/18 13:15:04;;;;;;;;;;;;;;;;;;5091845;28;19955;-73
2023/04/18 13:17:31;;;;;;;;;;;;;;;;;;5091692;28;20383;-71
2023/04/18 13:19:58;;;;;;;;;;;;;;;;;;5098551;28;19938;-71
2023/04/18 13:22:27;;;;;;;;;;;;;;;;;;5100911;28;19924;-71
2023/04/18 13:24:54;;;;;;;;;;;;;;;;;;5112158;28;19923;-69
2023/04/18 13:27:21;;;;;;;;;;;;;;;;;;5114987;28;19924;-72
2023/04/18 13:29:48;;;;;;;;;;;;;;;;;;5097213;28;19960;-72
2023/04/18 13:32:15;;;;;;;;;;;;;;;;;;5095437;28;19966;-72
2023/04/18 13:34:42;;;;;;;;;;;;;;;;;;5075059;28;20015;-73
2023/04/18 13:37:09;;;;;;;;;;;;;;;;;;5094346;28;19933;-72
2023/04/18 13:39:35;;;;;;;;;;;;;;;;;;5106666;28;20398;-71
2023/04/18 13:42:03;;;;;;;;;;;;;;;;;;5089042;28;19924;-72
2023/04/18 13:44:30;;;;;;;;;;;;;;;;;;5092884;28;20304;-71
2023/04/18 13:46:57;;;;;;;;;;;;;;;;;;5093223;28;20061;-72
2023/04/18 13:49:24;;;;;;;;;;;;;;;;;;5093910;28;20050;-71
2023/04/18 13:51:52;;;;;;;;;;;;;;;;;;5093146;28;20019;-71
2023/04/18 13:54:19;;;;;;;;;;;;;;;;;;5091090;28;19966;-72
2023/04/18 13:56:46;;;;;;;;;;;;;;;;;;5089525;28;20345;-72
2023/04/18 13:59:13;;;;;;;;;;;;;;;;;;5077413;28;19928;-74
2023/04/18 14:01:40;;;;;;;;;;;;;;;;;;5090829;28;20034;-73
2023/04/18 14:04:07;;;;;;;;;;;;;;;;;;5091231;28;19969;-73
2023/04/18 14:06:34;;;;;;;;;;;;;;;;;;5091864;28;20014;-72
2023/04/18 14:09:01;;;;;;;;;;;;;;;;;;5089409;28;19924;-74
2023/04/18 14:11:28;;;;;;;;;;;;;;;;;;5089240;28;20019;-71
2023/04/18 14:13:55;;;;;;;;;;;;;;;;;;5088431;28;19950;-71
2023/04/18 14:16:22;;;;;;;;;;;;;;;;;;5082199;28;19924;-72
2023/04/18 14:18:49;;;;;;;;;;;;;;;;;;5071855;28;19924;-70
2023/04/18 14:21:16;;;;;;;;;;;;;;;;;;5076020;28;19936;-71
2023/04/18 14:23:43;;;;;;;;;;;;;;;;;;5084462;28;19986;-70
2023/04/18 14:26:10;;;;;;;;;;;;;;;;;;5076544;28;19928;-71
2023/04/18 14:28:37;;;;;;;;;;;;;;;;;;5083900;28;20497;-71
2023/04/18 14:31:05;;;;;;;;;;;;;;;;;;5074862;28;20006;-71
2023/04/18 14:33:32;;;;;;;;;;;;;;;;;;5077955;28;19928;-74
2023/04/18 14:36:00;;;;;;;;;;;;;;;;;;5082988;28;19924;-73
2023/04/18 14:38:26;;;;;;;;;;;;;;;;;;5083584;28;19981;-73
2023/04/18 14:40:53;;;;;;;;;;;;;;;;;;5074562;28;19924;-72
2023/04/18 14:43:22;;;;;;;;;;;;;;;;;;5085589;28;20390;-72
2023/04/18 14:45:49;;;;;;;;;;;;;;;;;;5092533;28;20295;-74
2023/04/18 14:48:16;;;;;;;;;;;;;;;;;;5085742;28;19936;-72
2023/04/18 14:50:43;;;;;;;;;;;;;;;;;;5082957;28;19989;-73
2023/04/18 14:53:10;;;;;;;;;;;;;;;;;;5079328;28;19931;-72
2023/04/18 14:55:37;;;;;;;;;;;;;;;;;;5083175;28;19924;-73
2023/04/18 14:58:05;;;;;;;;;;;;;;;;;;5081698;28;19954;-73
2023/04/18 15:00:32;;;;;;;;;;;;;;;;;;5092832;28;19939;-73
2023/04/18 15:02:59;;;;;;;;;;;;;;;;;;5094560;28;19931;-72
2023/04/18 15:05:26;;;;;;;;;;;;;;;;;;5074589;28;20012;-74
2023/04/18 15:07:54;;;;;;;;;;;;;;;;;;5092374;28;19957;-73
2023/04/18 15:10:22;;;;;;;;;;;;;;;;;;5098989;28;19930;-74
2023/04/18 15:12:49;;;;;;;;;;;;;;;;;;5087394;28;19930;-74
2023/04/18 15:15:17;;;;;;;;;;;;;;;;;;5088662;28;19939;-72
2023/04/18 15:17:44;;;;;;;;;;;;;;;;;;5084902;28;19930;-72
2023/04/18 15:20:11;;;;;;;;;;;;;;;;;;5076642;28;19925;-73
2023/04/18 15:22:38;;;;;;;;;;;;;;;;;;5092058;28;20389;-72
2023/04/18 15:25:05;;;;;;;;;;;;;;;;;;5076990;28;20537;-73
2023/04/18 15:27:32;;;;;;;;;;;;;;;;;;5082846;28;20351;-73
2023/04/18 15:29:59;;;;;;;;;;;;;;;;;;5084028;28;20380;-72
2023/04/18 15:32:26;;;;;;;;;;;;;;;;;;5087551;28;19981;-72
2023/04/18 15:34:53;;;;;;;;;;;;;;;;;;5090101;28;19935;-72
2023/04/18 15:37:20;;;;;;;;;;;;;;;;;;5079155;28;19999;-73
2023/04/18 15:39:47;;;;;;;;;;;;;;;;;;5093869;28;19928;-73
2023/04/18 15:42:14;;;;;;;;;;;;;;;;;;5084115;28;19978;-72
2023/04/18 15:44:41;;;;;;;;;;;;;;;;;;5088693;28;19942;-72
2023/04/18 15:47:08;;;;;;;;;;;;;;;;;;5076386;28;20321;-73
2023/04/18 15:49:35;;;;;;;;;;;;;;;;;;5090174;28;19967;-72
2023/04/18 15:52:02;;;;;;;;;;;;;;;;;;5092378;28;19970;-73
2023/04/18 15:54:29;;;;;;;;;;;;;;;;;;5089766;28;20376;-73
2023/04/18 15:56:56;;;;;;;;;;;;;;;;;;5092477;28;19969;-72
2023/04/18 15:59:23;;;;;;;;;;;;;;;;;;5090734;28;19935;-73
2023/04/18 16:01:51;;;;;;;;;;;;;;;;;;5094157;28;20015;-73
2023/04/18 16:04:18;;;;;;;;;;;;;;;;;;5087819;28;19954;-73
2023/04/18 16:06:44;;;;;;;;;;;;;;;;;;5083785;28;20022;-73
2023/04/18 16:09:11;;;;;;;;;;;;;;;;;;5089611;28;20014;-73
2023/04/18 16:11:38;;;;;;;;;;;;;;;;;;5094245;28;19924;-73
2023/04/18 16:14:05;;;;;;;;;;;;;;;;;;5092876;28;19960;-73
2023/04/18 16:16:33;;;;;;;;;;;;;;;;;;5094184;28;20010;-73
2023/04/18 16:19:00;;;;;;;;;;;;;;;;;;5083227;28;20302;-72
2023/04/18 16:21:27;;;;;;;;;;;;;;;;;;5074285;28;20503;-70
2023/04/18 16:23:54;;;;;;;;;;;;;;;;;;5079775;28;19937;-74
2023/04/18 16:26:23;;;;;;;;;;;;;;;;;;5093467;28;19924;-73
2023/04/18 16:28:50;;;;;;;;;;;;;;;;;;5098372;28;20415;-72
2023/04/18 16:31:17;;;;;;;;;;;;;;;;;;5092156;28;20391;-72
2023/04/18 16:33:44;;;;;;;;;;;;;;;;;;5077322;28;20376;-73
2023/04/18 16:36:11;;;;;;;;;;;;;;;;;;5084197;28;19923;-73
2023/04/18 16:38:38;;;;;;;;;;;;;;;;;;5087775;28;20279;-73
2023/04/18 16:41:08;;;;;;;;;;;;;;;;;;5088191;28;20435;-75
2023/04/18 16:43:36;;;;;;;;;;;;;;;;;;5082266;28;20301;-72
2023/04/18 16:46:03;;;;;;;;;;;;;;;;;;5080551;28;19931;-72